createdAt,value
2018-09-27T00:01:02.251Z,8.90
2018-09-27T00:03:32.867Z,9.00
2018-09-27T00:06:03.471Z,8.80
2018-09-27T00:08:34.154Z,8.60
2018-09-27T00:11:04.746Z,8.50
2018-09-27T00:13:35.567Z,8.40
2018-09-27T00:16:06.571Z,8.30
2018-09-27T00:18:37.226Z,8.60
2018-09-27T00:21:08.063Z,9.00
2018-09-27T00:23:38.717Z,9.00
2018-09-27T00:26:09.971Z,8.90
2018-09-27T00:28:40.687Z,9.00
2018-09-27T00:31:11.363Z,8.60
2018-09-27T00:33:42.015Z,8.30
2018-09-27T00:36:12.858Z,8.30
2018-09-27T00:38:43.452Z,8.40
2018-09-27T00:41:14.203Z,8.40
2018-09-27T00:43:44.849Z,8.20
2018-09-27T00:46:15.511Z,8.20
2018-09-27T00:48:46.359Z,8.40
2018-09-27T00:51:17.151Z,8.60
2018-09-27T00:53:47.931Z,8.50
2018-09-27T00:56:18.614Z,8.40
2018-09-27T00:58:49.332Z,8.70
2018-09-27T01:01:19.944Z,8.70
2018-09-27T01:03:50.714Z,8.60
2018-09-27T01:06:21.311Z,8.20
2018-09-27T01:08:52.983Z,8.30
2018-09-27T01:11:23.664Z,8.30
2018-09-27T01:13:54.368Z,8.20
2018-09-27T01:16:24.984Z,8.00
2018-09-27T01:18:55.624Z,7.90
2018-09-27T01:21:26.283Z,7.70
2018-09-27T01:23:56.963Z,7.60
2018-09-27T01:26:27.617Z,7.70
2018-09-27T01:28:58.273Z,7.80
2018-09-27T01:31:28.946Z,7.50
2018-09-27T01:33:59.600Z,7.60
2018-09-27T01:36:30.298Z,7.50
2018-09-27T01:39:00.952Z,7.40
2018-09-27T01:41:31.612Z,7.30
2018-09-27T01:44:02.272Z,7.60
2018-09-27T01:46:32.952Z,7.40
2018-09-27T01:49:03.604Z,7.30
2018-09-27T01:51:34.252Z,7.40
2018-09-27T01:54:04.893Z,7.50
2018-09-27T01:56:35.504Z,7.50
2018-09-27T01:59:06.191Z,7.80
2018-09-27T02:01:36.854Z,7.60
2018-09-27T02:04:07.552Z,7.70
2018-09-27T02:06:38.398Z,7.90
2018-09-27T02:09:10.672Z,7.70
2018-09-27T02:11:41.431Z,7.50
2018-09-27T02:14:12.096Z,7.30
2018-09-27T02:16:43.052Z,7.40
2018-09-27T02:19:13.782Z,7.30
2018-09-27T02:21:44.511Z,7.50
2018-09-27T02:24:15.314Z,7.60
2018-09-27T02:26:45.973Z,7.20
2018-09-27T02:29:16.695Z,7.10
2018-09-27T02:31:47.371Z,7.00
2018-09-27T02:34:18.073Z,6.80
2018-09-27T02:36:48.777Z,6.90
2018-09-27T02:39:19.452Z,7.30
2018-09-27T02:41:50.114Z,7.10
2018-09-27T02:44:20.852Z,7.40
2018-09-27T02:46:51.532Z,7.20
2018-09-27T02:49:22.132Z,7.40
2018-09-27T02:51:52.763Z,7.60
2018-09-27T02:54:23.411Z,7.60
2018-09-27T02:56:54.145Z,7.10
2018-09-27T02:59:24.757Z,7.10
2018-09-27T03:01:55.412Z,7.30
2018-09-27T03:04:26.136Z,7.30
2018-09-27T03:06:56.864Z,7.00
2018-09-27T03:09:27.431Z,6.70
2018-09-27T03:11:58.115Z,6.60
2018-09-27T03:14:28.872Z,6.70
2018-09-27T03:16:59.513Z,6.70
2018-09-27T03:19:30.211Z,6.60
2018-09-27T03:22:00.884Z,6.70
2018-09-27T03:24:31.607Z,6.80
2018-09-27T03:27:02.220Z,6.80
2018-09-27T03:29:32.824Z,6.70
2018-09-27T03:32:03.660Z,7.00
2018-09-27T03:34:34.651Z,7.10
2018-09-27T03:37:05.292Z,7.10
2018-09-27T03:39:36.030Z,6.90
2018-09-27T03:42:06.683Z,7.20
2018-09-27T03:44:37.391Z,6.90
2018-09-27T03:47:08.104Z,6.70
2018-09-27T03:49:38.931Z,6.50
2018-09-27T03:52:09.631Z,6.40
2018-09-27T03:54:40.369Z,6.50
2018-09-27T03:57:10.988Z,6.40
2018-09-27T03:59:41.632Z,6.40
2018-09-27T04:02:12.292Z,6.60
2018-09-27T04:04:42.951Z,6.80
2018-09-27T04:07:13.689Z,6.80
2018-09-27T04:09:44.511Z,6.70
2018-09-27T04:12:15.124Z,6.70
2018-09-27T04:14:45.792Z,6.50
2018-09-27T04:17:16.404Z,6.30
2018-09-27T04:19:47.126Z,6.40
2018-09-27T04:22:17.735Z,6.40
2018-09-27T04:24:48.399Z,6.20
2018-09-27T04:27:19.011Z,6.10
2018-09-27T04:29:49.712Z,6.30
2018-09-27T04:32:20.429Z,6.30
2018-09-27T04:34:51.208Z,6.30
2018-09-27T04:37:21.963Z,6.20
2018-09-27T04:39:52.634Z,6.20
2018-09-27T04:42:23.453Z,6.30
2018-09-27T04:44:54.127Z,6.30
2018-09-27T04:47:24.885Z,6.20
2018-09-27T04:49:55.595Z,6.10
2018-09-27T04:52:26.393Z,6.10
2018-09-27T04:54:57.103Z,6.40
2018-09-27T04:57:28.020Z,6.40
2018-09-27T04:59:58.771Z,6.60
2018-09-27T05:02:29.505Z,6.60
2018-09-27T05:05:00.190Z,6.80
2018-09-27T05:07:31.029Z,7.00
2018-09-27T05:10:01.757Z,7.00
2018-09-27T05:12:33.039Z,6.80
2018-09-27T05:15:03.831Z,6.60
2018-09-27T05:17:34.527Z,6.60
2018-09-27T05:20:05.879Z,6.40
2018-09-27T05:22:36.570Z,6.40
2018-09-27T05:25:07.488Z,6.30
2018-09-27T05:27:38.281Z,6.40
2018-09-27T05:30:09.129Z,6.20
2018-09-27T05:32:39.807Z,6.00
2018-09-27T05:35:10.699Z,6.10
2018-09-27T05:37:41.592Z,6.40
2018-09-27T05:40:12.327Z,6.20
2018-09-27T05:42:43.068Z,6.10
2018-09-27T05:45:13.794Z,6.20
2018-09-27T05:47:44.488Z,6.40
2018-09-27T05:50:15.227Z,6.30
2018-09-27T05:52:45.903Z,6.40
2018-09-27T05:55:16.579Z,6.40
2018-09-27T05:57:47.367Z,6.40
2018-09-27T06:00:18.021Z,6.60
2018-09-27T06:02:49.575Z,6.50
2018-09-27T06:05:20.247Z,6.30
2018-09-27T06:07:51.139Z,6.40
2018-09-27T06:10:21.906Z,6.40
2018-09-27T06:12:52.719Z,6.50
2018-09-27T06:15:23.679Z,6.70
2018-09-27T06:17:54.308Z,6.90
2018-09-27T06:20:25.108Z,6.50
2018-09-27T06:22:55.888Z,6.50
2018-09-27T06:25:26.679Z,6.40
2018-09-27T06:27:57.592Z,6.50
2018-09-27T06:30:28.274Z,6.40
2018-09-27T06:32:58.955Z,6.40
2018-09-27T06:35:29.612Z,6.30
2018-09-27T06:38:00.381Z,6.20
2018-09-27T06:40:31.151Z,6.20
2018-09-27T06:43:01.879Z,6.30
2018-09-27T06:45:32.602Z,6.40
2018-09-27T06:48:03.500Z,6.50
2018-09-27T06:50:34.275Z,6.40
2018-09-27T06:53:05.144Z,6.20
2018-09-27T06:55:35.962Z,6.30
2018-09-27T06:58:06.748Z,6.20
2018-09-27T07:00:37.588Z,6.20
2018-09-27T07:03:08.507Z,6.40
2018-09-27T07:05:39.178Z,6.60
2018-09-27T07:08:09.899Z,6.80
2018-09-27T07:10:40.745Z,6.70
2018-09-27T07:13:11.467Z,6.60
2018-09-27T07:15:42.281Z,6.60
2018-09-27T07:18:12.990Z,6.60
2018-09-27T07:20:43.727Z,6.50
2018-09-27T07:23:14.456Z,6.60
2018-09-27T07:25:45.172Z,6.60
2018-09-27T07:28:15.927Z,6.80
2018-09-27T07:30:46.742Z,6.80
2018-09-27T07:33:17.528Z,6.80
2018-09-27T07:35:48.247Z,6.90
2018-09-27T07:38:19.070Z,6.90
2018-09-27T07:40:49.850Z,7.00
2018-09-27T07:43:21.193Z,6.70
2018-09-27T07:45:51.988Z,6.90
2018-09-27T07:48:22.892Z,7.10
2018-09-27T07:50:53.897Z,7.30
2018-09-27T07:53:24.727Z,7.70
2018-09-27T07:55:55.465Z,8.00
2018-09-27T07:58:26.312Z,8.30
2018-09-27T08:00:57.151Z,8.50
2018-09-27T08:03:27.904Z,8.70
2018-09-27T08:05:58.643Z,8.90
2018-09-27T08:08:29.394Z,9.10
2018-09-27T08:11:00.267Z,9.20
2018-09-27T08:13:31.100Z,9.40
2018-09-27T08:16:02.254Z,9.50
2018-09-27T08:18:33.080Z,9.60
2018-09-27T08:21:04.804Z,9.90
2018-09-27T08:23:35.527Z,10.10
2018-09-27T08:26:06.316Z,10.20
2018-09-27T08:28:37.124Z,10.20
2018-09-27T08:31:08.017Z,10.40
2018-09-27T08:33:38.787Z,10.50
2018-09-27T08:36:09.532Z,10.60
2018-09-27T08:38:40.385Z,10.70
2018-09-27T08:41:11.179Z,11.00
2018-09-27T08:43:41.997Z,11.10
2018-09-27T08:46:12.748Z,11.20
2018-09-27T08:48:43.480Z,11.30
2018-09-27T08:51:14.221Z,11.50
2018-09-27T08:53:45.019Z,11.70
2018-09-27T08:56:16.037Z,11.80
2018-09-27T08:58:46.707Z,11.90
2018-09-27T09:01:17.441Z,12.10
2018-09-27T09:03:48.231Z,12.30
2018-09-27T09:06:19.044Z,12.40
2018-09-27T09:08:49.852Z,12.50
2018-09-27T09:11:20.732Z,12.50
2018-09-27T09:13:51.596Z,12.80
2018-09-27T09:16:22.406Z,13.00
2018-09-27T09:18:53.211Z,13.00
2018-09-27T09:21:23.959Z,13.10
2018-09-27T09:23:54.767Z,13.30
2018-09-27T09:26:25.568Z,13.50
2018-09-27T09:28:56.422Z,13.60
2018-09-27T09:31:27.349Z,13.80
2018-09-27T09:33:58.137Z,13.80
2018-09-27T09:36:28.941Z,14.10
2018-09-27T09:38:59.808Z,14.10
2018-09-27T09:41:30.597Z,14.20
2018-09-27T09:44:01.624Z,14.50
2018-09-27T09:46:32.552Z,14.50
2018-09-27T09:49:03.371Z,14.70
2018-09-27T09:51:34.270Z,14.70
2018-09-27T09:54:05.074Z,14.80
2018-09-27T09:56:35.867Z,14.80
2018-09-27T09:59:06.791Z,14.80
2018-09-27T10:01:37.689Z,14.80
2018-09-27T10:04:08.427Z,15.10
2018-09-27T10:06:39.439Z,15.20
2018-09-27T10:09:11.298Z,15.30
2018-09-27T10:11:42.123Z,15.50
2018-09-27T10:14:12.887Z,15.40
2018-09-27T10:16:43.660Z,15.20
2018-09-27T10:19:14.531Z,15.30
2018-09-27T10:21:45.399Z,15.60
2018-09-27T10:24:18.267Z,15.50
2018-09-27T10:26:49.094Z,15.80
2018-09-27T10:29:19.908Z,16.00
2018-09-27T10:31:50.736Z,16.30
2018-09-27T10:34:21.540Z,16.40
2018-09-27T10:36:52.607Z,16.40
2018-09-27T10:39:23.458Z,16.40
2018-09-27T10:41:54.209Z,16.40
2018-09-27T10:44:24.946Z,16.60
2018-09-27T10:46:55.838Z,16.70
2018-09-27T10:49:26.807Z,16.60
2018-09-27T10:51:57.635Z,17.00
2018-09-27T10:54:28.515Z,16.60
2018-09-27T10:56:59.263Z,16.40
2018-09-27T10:59:29.994Z,16.50
2018-09-27T11:02:00.843Z,16.90
2018-09-27T11:04:31.588Z,16.90
2018-09-27T11:07:02.307Z,17.20
2018-09-27T11:09:33.084Z,17.00
2018-09-27T11:12:03.725Z,17.30
2018-09-27T11:14:34.519Z,17.50
2018-09-27T11:17:05.355Z,17.70
2018-09-27T11:19:36.308Z,17.80
2018-09-27T11:22:07.129Z,17.90
2018-09-27T11:24:37.915Z,17.80
2018-09-27T11:27:08.991Z,17.60
2018-09-27T11:29:44.738Z,17.60
2018-09-27T11:32:20.442Z,17.70
2018-09-27T11:34:51.305Z,18.10
2018-09-27T11:37:22.033Z,18.50
2018-09-27T11:39:52.956Z,18.40
2018-09-27T11:42:24.043Z,18.50
2018-09-27T11:44:54.922Z,18.60
2018-09-27T11:47:25.691Z,18.50
2018-09-27T11:49:56.529Z,18.60
2018-09-27T11:52:27.260Z,18.80
2018-09-27T11:54:58.315Z,18.80
2018-09-27T11:57:29.266Z,18.80
2018-09-27T12:00:00.006Z,19.10
2018-09-27T12:02:30.784Z,19.10
2018-09-27T12:05:01.501Z,19.10
2018-09-27T12:07:32.324Z,19.10
2018-09-27T12:10:03.083Z,19.40
2018-09-27T12:12:33.803Z,19.60
2018-09-27T12:15:04.652Z,19.70
2018-09-27T12:17:35.430Z,19.70
2018-09-27T12:20:06.373Z,19.60
2018-09-27T12:22:37.071Z,19.60
2018-09-27T12:25:07.931Z,19.90
2018-09-27T12:27:38.676Z,19.90
2018-09-27T12:30:09.482Z,20.00
2018-09-27T12:32:40.246Z,20.20
2018-09-27T12:35:10.923Z,20.10
2018-09-27T12:37:41.715Z,20.20
2018-09-27T12:40:12.512Z,20.20
2018-09-27T12:42:43.495Z,20.40
2018-09-27T12:45:14.284Z,20.70
2018-09-27T12:47:44.982Z,20.80
2018-09-27T12:50:15.813Z,20.70
2018-09-27T12:52:46.889Z,20.80
2018-09-27T12:55:17.643Z,20.80
2018-09-27T12:57:48.413Z,20.70
2018-09-27T13:00:19.164Z,20.80
2018-09-27T13:02:50.274Z,20.90
2018-09-27T13:05:20.932Z,21.00
2018-09-27T13:07:51.920Z,21.20
2018-09-27T13:10:22.959Z,21.10
2018-09-27T13:12:53.754Z,21.30
2018-09-27T13:15:24.416Z,21.00
2018-09-27T13:17:55.199Z,21.30
2018-09-27T13:20:25.959Z,21.20
2018-09-27T13:22:56.921Z,21.10
2018-09-27T13:25:27.720Z,21.20
2018-09-27T13:27:58.564Z,21.40
2018-09-27T13:30:29.392Z,21.80
2018-09-27T13:33:00.285Z,21.80
2018-09-27T13:35:31.092Z,21.40
2018-09-27T13:38:01.836Z,21.70
2018-09-27T13:40:32.634Z,21.70
2018-09-27T13:43:03.449Z,21.60
2018-09-27T13:45:34.272Z,21.60
2018-09-27T13:48:05.164Z,21.40
2018-09-27T13:50:35.956Z,21.50
2018-09-27T13:53:06.705Z,21.60
2018-09-27T13:55:37.490Z,21.30
2018-09-27T13:58:08.296Z,21.50
2018-09-27T14:00:39.083Z,21.70
2018-09-27T14:03:09.993Z,21.80
2018-09-27T14:05:40.727Z,21.60
2018-09-27T14:08:11.576Z,21.50
2018-09-27T14:10:42.447Z,21.60
2018-09-27T14:13:13.144Z,21.80
2018-09-27T14:15:43.933Z,22.20
2018-09-27T14:18:14.592Z,22.10
2018-09-27T14:20:45.352Z,22.40
2018-09-27T14:23:16.155Z,22.30
2018-09-27T14:25:46.982Z,22.70
2018-09-27T14:28:17.735Z,22.50
2018-09-27T14:30:48.751Z,22.50
2018-09-27T14:33:19.554Z,22.40
2018-09-27T14:35:50.337Z,22.40
2018-09-27T14:38:21.215Z,22.10
2018-09-27T14:40:52.112Z,22.30
2018-09-27T14:43:22.933Z,21.90
2018-09-27T14:45:53.800Z,22.30
2018-09-27T14:48:24.572Z,22.70
2018-09-27T14:50:55.321Z,22.80
2018-09-27T14:53:26.076Z,22.90
2018-09-27T14:55:56.991Z,22.10
2018-09-27T14:58:27.742Z,21.80
2018-09-27T15:00:58.791Z,22.50
2018-09-27T15:03:29.483Z,22.60
2018-09-27T15:06:00.315Z,22.50
2018-09-27T15:08:31.164Z,22.40
2018-09-27T15:11:01.878Z,22.20
2018-09-27T15:13:32.617Z,21.70
2018-09-27T15:16:03.370Z,21.70
2018-09-27T15:18:34.092Z,22.40
2018-09-27T15:21:04.823Z,22.60
2018-09-27T15:23:37.674Z,22.40
2018-09-27T15:26:08.511Z,22.60
2018-09-27T15:28:40.245Z,22.50
2018-09-27T15:31:10.995Z,22.50
2018-09-27T15:33:41.771Z,22.50
2018-09-27T15:36:12.536Z,22.20
2018-09-27T15:38:43.178Z,22.10
2018-09-27T15:41:14.036Z,22.20
2018-09-27T15:43:45.315Z,21.80
2018-09-27T15:46:16.084Z,21.80
2018-09-27T15:48:46.833Z,21.50
2018-09-27T15:51:18.363Z,21.50
2018-09-27T15:53:49.096Z,21.10
2018-09-27T15:56:19.948Z,20.70
2018-09-27T15:58:51.123Z,20.80
2018-09-27T16:01:22.375Z,20.90
2018-09-27T16:03:54.145Z,20.80
2018-09-27T16:06:24.821Z,20.70
2018-09-27T16:08:55.499Z,20.60
2018-09-27T16:11:26.612Z,20.30
2018-09-27T16:13:57.589Z,19.80
2018-09-27T16:16:28.476Z,19.10
2018-09-27T16:19:00.140Z,18.70
2018-09-27T16:21:34.543Z,18.20
2018-09-27T16:24:09.658Z,17.90
2018-09-27T16:26:40.496Z,17.60
2018-09-27T16:29:14.818Z,17.60
2018-09-27T16:31:45.654Z,17.40
2018-09-27T16:34:16.391Z,17.30
2018-09-27T16:36:47.212Z,17.20
2018-09-27T16:39:18.368Z,17.30
2018-09-27T16:41:49.323Z,17.00
2018-09-27T16:44:21.570Z,16.90
2018-09-27T16:46:52.650Z,17.00
2018-09-27T16:49:24.164Z,16.80
2018-09-27T16:51:56.381Z,17.00
2018-09-27T16:54:27.407Z,16.80
2018-09-27T16:56:58.441Z,16.80
2018-09-27T16:59:29.808Z,16.80
2018-09-27T17:02:01.005Z,16.70
2018-09-27T17:04:32.293Z,16.60
2018-09-27T17:07:03.673Z,16.40
2018-09-27T17:09:34.903Z,16.40
2018-09-27T17:12:06.174Z,16.40
2018-09-27T17:14:37.201Z,16.20
2018-09-27T17:17:08.556Z,16.20
2018-09-27T17:19:39.716Z,16.10
2018-09-27T17:22:10.936Z,16.00
2018-09-27T17:24:42.266Z,15.80
2018-09-27T17:27:13.614Z,15.60
2018-09-27T17:29:45.980Z,15.40
2018-09-27T17:32:17.231Z,15.20
2018-09-27T17:34:49.731Z,14.90
2018-09-27T17:37:21.235Z,14.70
2018-09-27T17:39:52.991Z,14.40
2018-09-27T17:42:24.492Z,14.40
2018-09-27T17:44:55.940Z,14.20
2018-09-27T17:47:27.452Z,14.20
2018-09-27T17:49:58.852Z,14.00
2018-09-27T17:52:32.375Z,14.00
2018-09-27T17:55:04.032Z,13.90
2018-09-27T17:57:35.399Z,14.10
2018-09-27T18:00:06.863Z,14.00
2018-09-27T18:02:38.292Z,14.00
2018-09-27T18:05:18.982Z,13.80
2018-09-27T18:07:41.279Z,13.50
2018-09-27T18:10:12.631Z,13.50
2018-09-27T18:12:44.292Z,13.30
2018-09-27T18:15:18.375Z,13.50
2018-09-27T18:17:49.904Z,13.60
2018-09-27T18:20:24.165Z,13.60
2018-09-27T18:22:55.532Z,13.50
2018-09-27T18:25:26.926Z,13.20
2018-09-27T18:28:00.592Z,13.20
2018-09-27T18:30:31.933Z,13.10
2018-09-27T18:33:03.582Z,13.00
2018-09-27T18:35:36.173Z,13.30
2018-09-27T18:38:07.757Z,13.40
2018-09-27T18:40:40.093Z,13.50
2018-09-27T18:43:11.624Z,13.40
2018-09-27T18:45:43.513Z,13.50
2018-09-27T18:48:15.072Z,13.30
2018-09-27T18:50:46.772Z,13.10
2018-09-27T18:53:19.254Z,13.10
2018-09-27T18:55:52.444Z,13.00
2018-09-27T18:58:23.853Z,13.10
2018-09-27T19:00:56.999Z,13.10
2018-09-27T19:03:28.836Z,13.20
2018-09-27T19:06:03.584Z,13.20
2018-09-27T19:08:34.973Z,13.20
2018-09-27T19:11:06.551Z,13.10
2018-09-27T19:13:37.953Z,12.90
2018-09-27T19:16:09.504Z,13.00
2018-09-27T19:18:42.649Z,13.00
2018-09-27T19:21:14.244Z,12.90
2018-09-27T19:23:45.646Z,12.80
2018-09-27T19:26:17.064Z,12.60
2018-09-27T19:28:49.262Z,12.60
2018-09-27T19:31:21.007Z,12.60
2018-09-27T19:33:52.875Z,12.80
2018-09-27T19:36:24.327Z,12.80
2018-09-27T19:38:55.764Z,12.80
2018-09-27T19:41:27.657Z,12.70
2018-09-27T19:43:59.157Z,12.60
2018-09-27T19:46:30.496Z,12.50
2018-09-27T19:49:01.989Z,12.40
2018-09-27T19:51:33.528Z,12.30
2018-09-27T19:54:05.824Z,12.20
2018-09-27T19:56:38.337Z,12.10
2018-09-27T19:59:09.711Z,12.00
2018-09-27T20:01:41.092Z,12.10
2018-09-27T20:04:13.413Z,12.20
2018-09-27T20:06:44.744Z,12.40
2018-09-27T20:09:16.104Z,12.30
2018-09-27T20:11:47.533Z,12.00
2018-09-27T20:14:18.747Z,11.90
2018-09-27T20:16:51.014Z,12.00
2018-09-27T20:19:23.133Z,12.10
2018-09-27T20:21:55.050Z,12.00
2018-09-27T20:24:26.821Z,11.90
2018-09-27T20:26:58.649Z,11.80
2018-09-27T20:29:29.933Z,11.90
2018-09-27T20:32:01.247Z,11.90
2018-09-27T20:34:32.705Z,12.00
2018-09-27T20:37:05.001Z,12.00
2018-09-27T20:39:36.292Z,12.00
2018-09-27T20:42:07.712Z,11.80
2018-09-27T20:44:39.194Z,11.90
2018-09-27T20:47:10.598Z,11.80
2018-09-27T20:49:42.052Z,11.80
2018-09-27T20:52:13.517Z,11.90
2018-09-27T20:54:46.082Z,11.80
2018-09-27T20:57:17.440Z,11.70
2018-09-27T20:59:49.506Z,11.60
2018-09-27T21:02:21.516Z,11.70
2018-09-27T21:04:52.776Z,11.90
2018-09-27T21:07:24.064Z,11.70
2018-09-27T21:09:55.293Z,11.60
2018-09-27T21:12:26.604Z,11.40
2018-09-27T21:14:58.852Z,11.30
2018-09-27T21:17:29.973Z,11.30
2018-09-27T21:20:00.612Z,11.30
2018-09-27T21:22:31.294Z,11.20
2018-09-27T21:25:01.976Z,11.20
2018-09-27T21:27:32.731Z,11.30
2018-09-27T21:30:03.515Z,11.30
2018-09-27T21:32:34.203Z,11.00
2018-09-27T21:35:05.092Z,10.80
2018-09-27T21:37:35.833Z,10.80
2018-09-27T21:40:06.792Z,10.70
2018-09-27T21:42:37.444Z,10.80
2018-09-27T21:45:08.212Z,11.00
2018-09-27T21:47:38.965Z,11.00
2018-09-27T21:50:09.780Z,11.10
2018-09-27T21:52:40.331Z,10.70
2018-09-27T21:55:11.042Z,10.60
2018-09-27T21:57:42.363Z,10.60
2018-09-27T22:00:13.072Z,10.50
2018-09-27T22:02:44.254Z,10.70
2018-09-27T22:05:15.043Z,10.60
2018-09-27T22:07:45.752Z,10.70
2018-09-27T22:10:16.564Z,10.60
2018-09-27T22:12:47.331Z,10.70
2018-09-27T22:15:17.995Z,10.60
2018-09-27T22:17:48.751Z,10.50
2018-09-27T22:20:19.691Z,10.60
2018-09-27T22:22:50.344Z,10.60
2018-09-27T22:25:21.011Z,10.60
2018-09-27T22:27:51.703Z,10.50
2018-09-27T22:30:22.433Z,10.50
2018-09-27T22:32:53.120Z,10.40
2018-09-27T22:35:24.063Z,10.20
2018-09-27T22:37:54.843Z,10.20
2018-09-27T22:40:25.571Z,10.20
2018-09-27T22:42:56.273Z,10.10
2018-09-27T22:45:26.923Z,10.10
2018-09-27T22:47:57.644Z,10.20
2018-09-27T22:50:28.384Z,10.20
2018-09-27T22:52:59.084Z,10.30
2018-09-27T22:55:29.845Z,10.30
2018-09-27T22:58:00.622Z,10.30
2018-09-27T23:00:31.298Z,10.30
2018-09-27T23:03:01.996Z,10.20
2018-09-27T23:05:32.583Z,10.20
2018-09-27T23:08:03.211Z,10.20
2018-09-27T23:10:33.862Z,10.50
2018-09-27T23:13:04.491Z,10.30
2018-09-27T23:15:35.451Z,10.40
2018-09-27T23:18:06.251Z,10.30
2018-09-27T23:20:36.897Z,10.30
2018-09-27T23:23:07.627Z,10.40
2018-09-27T23:25:38.329Z,10.30
2018-09-27T23:28:09.080Z,10.30
2018-09-27T23:30:40.047Z,10.30
2018-09-27T23:33:10.736Z,10.00
2018-09-27T23:35:41.518Z,10.10
2018-09-27T23:38:12.257Z,10.10
2018-09-27T23:40:42.932Z,10.00
2018-09-27T23:43:13.680Z,9.80
2018-09-27T23:45:44.284Z,9.80
2018-09-27T23:48:15.016Z,9.90
2018-09-27T23:50:45.697Z,9.90
2018-09-27T23:53:16.391Z,9.80
2018-09-27T23:55:47.092Z,9.80
2018-09-27T23:58:17.794Z,10.10
